GreenwoodľLeflore Airport


Codes: KGWO/GWO
Name: GreenwoodľLeflore Airport
City: Greenwood
Country: United States
Elevation: 162 ft.
Website:
Wikipedia:

Photos at GreenwoodľLeflore Airport


   Photos courtesy of SpottingLog. You can add your own sightings and photos by signing up for a free trial today.



No photos found.

Weather at GreenwoodľLeflore Airport


Time (UTC)DescriptionTempratureWindCloud coverageVisibilityPressureHumidity
21-Feb-2024 03:00Clear Sky13┬░C4 mph, SE0%10000m1023hPa67%
21-Feb-2024 06:00Clear Sky12┬░C7 mph, SE1%10000m1023hPa74%
21-Feb-2024 09:00Clear Sky11┬░C7 mph, S5%10000m1023hPa83%
21-Feb-2024 12:00Few Clouds9┬░C7 mph, S13%10000m1023hPa93%
21-Feb-2024 15:00Overcast Clouds14┬░C11 mph, S88%10000m1024hPa80%
21-Feb-2024 18:00Overcast Clouds19┬░C13 mph, S94%10000m1022hPa62%
21-Feb-2024 21:00Overcast Clouds21┬░C13 mph, S99%10000m1018hPa56%
22-Feb-2024 00:00Overcast Clouds17┬░C11 mph, S100%10000m1017hPa70%
22-Feb-2024 03:00Overcast Clouds16┬░C13 mph, S100%10000m1016hPa73%
22-Feb-2024 06:00Overcast Clouds14┬░C16 mph, S94%10000m1016hPa81%
22-Feb-2024 09:00Few Clouds13┬░C16 mph, S11%10000m1014hPa87%
22-Feb-2024 12:00Light Rain14┬░C16 mph, S50%10000m1013hPa87%
22-Feb-2024 15:00Overcast Clouds16┬░C18 mph, SW100%10000m1011hPa78%
22-Feb-2024 18:00Overcast Clouds19┬░C20 mph, SW95%10000m1009hPa76%
22-Feb-2024 21:00Light Rain20┬░C18 mph, SW100%10000m1006hPa74%
23-Feb-2024 00:00Light Rain18┬░C11 mph, SW100%10000m1006hPa87%
23-Feb-2024 03:00Light Rain15┬░C7 mph, SW100%10000m1006hPa91%
23-Feb-2024 06:00Broken Clouds15┬░C11 mph, N73%10000m1007hPa90%
23-Feb-2024 09:00Clear Sky11┬░C9 mph, N6%10000m1009hPa86%
23-Feb-2024 12:00Scattered Clouds9┬░C7 mph, NW30%10000m1011hPa94%
23-Feb-2024 15:00Clear Sky13┬░C11 mph, NW0%10000m1014hPa74%
23-Feb-2024 18:00Clear Sky16┬░C11 mph, NW0%10000m1014hPa51%
23-Feb-2024 21:00Clear Sky17┬░C13 mph, NW0%10000m1013hPa42%
24-Feb-2024 00:00Clear Sky12┬░C4 mph, NW0%10000m1014hPa61%
24-Feb-2024 03:00Clear Sky11┬░C4 mph, W0%10000m1015hPa66%
24-Feb-2024 06:00Clear Sky10┬░C7 mph, SW0%10000m1015hPa69%
24-Feb-2024 09:00Clear Sky9┬░C4 mph, W1%10000m1015hPa76%
24-Feb-2024 12:00Few Clouds8┬░C4 mph, SW12%10000m1016hPa79%
24-Feb-2024 15:00Clear Sky13┬░C9 mph, NW0%10000m1019hPa62%
24-Feb-2024 18:00Clear Sky17┬░C11 mph, NW0%10000m1019hPa45%
24-Feb-2024 21:00Clear Sky18┬░C9 mph, NW0%10000m1019hPa43%
25-Feb-2024 00:00Clear Sky13┬░C4 mph, N0%10000m1019hPa61%
25-Feb-2024 03:00Clear Sky10┬░C7 mph, E0%10000m1021hPa69%
25-Feb-2024 06:00Clear Sky9┬░C7 mph, SE1%10000m1021hPa72%
25-Feb-2024 09:00Clear Sky8┬░C7 mph, S3%10000m1020hPa79%
25-Feb-2024 12:00Scattered Clouds8┬░C9 mph, S35%10000m1019hPa81%
25-Feb-2024 15:00Broken Clouds14┬░C11 mph, S72%10000m1020hPa62%
25-Feb-2024 18:00Overcast Clouds20┬░C13 mph, SW85%10000m1018hPa46%
25-Feb-2024 21:00Overcast Clouds21┬░C13 mph, S87%10000m1016hPa47%
26-Feb-2024 00:00Broken Clouds16┬░C11 mph, S82%10000m1016hPa61%